sensor_id;sensor_type;location;lat;lon;timestamp;temperature;humidity
28632;DHT22;15818;45.534;5.292;2022-11-24T00:01:20;6.70;99.90
28632;DHT22;15818;45.534;5.292;2022-11-24T00:03:50;6.60;99.90
28632;DHT22;15818;45.534;5.292;2022-11-24T00:06:17;6.60;99.90
28632;DHT22;15818;45.534;5.292;2022-11-24T00:08:43;6.70;99.90
28632;DHT22;15818;45.534;5.292;2022-11-24T00:11:12;6.70;99.90
28632;DHT22;15818;45.534;5.292;2022-11-24T00:13:37;6.70;99.90
28632;DHT22;15818;45.534;5.292;2022-11-24T00:16:10;6.70;99.90
28632;DHT22;15818;45.534;5.292;2022-11-24T00:18:37;6.70;99.90
28632;DHT22;15818;45.534;5.292;2022-11-24T00:21:03;6.70;99.90
28632;DHT22;15818;45.534;5.292;2022-11-24T00:23:28;6.60;99.90
28632;DHT22;15818;45.534;5.292;2022-11-24T00:25:54;6.60;99.90
28632;DHT22;15818;45.534;5.292;2022-11-24T00:28:20;6.70;99.90
28632;DHT22;15818;45.534;5.292;2022-11-24T00:30:45;6.70;99.90
28632;DHT22;15818;45.534;5.292;2022-11-24T00:33:11;6.60;99.90
28632;DHT22;15818;45.534;5.292;2022-11-24T00:35:36;6.70;99.90
28632;DHT22;15818;45.534;5.292;2022-11-24T00:38:02;6.70;99.90
28632;DHT22;15818;45.534;5.292;2022-11-24T00:40:27;6.80;99.90
28632;DHT22;15818;45.534;5.292;2022-11-24T00:42:53;6.80;99.90
28632;DHT22;15818;45.534;5.292;2022-11-24T00:45:18;6.80;99.90
28632;DHT22;15818;45.534;5.292;2022-11-24T00:47:44;6.80;99.90
28632;DHT22;15818;45.534;5.292;2022-11-24T00:50:10;6.80;99.90
28632;DHT22;15818;45.534;5.292;2022-11-24T00:52:35;6.80;99.90
28632;DHT22;15818;45.534;5.292;2022-11-24T00:55:01;6.80;99.90
28632;DHT22;15818;45.534;5.292;2022-11-24T00:57:26;6.70;99.90
28632;DHT22;15818;45.534;5.292;2022-11-24T00:59:52;6.70;99.90
28632;DHT22;15818;45.534;5.292;2022-11-24T01:02:17;6.70;99.90
28632;DHT22;15818;45.534;5.292;2022-11-24T01:04:43;6.70;99.90
28632;DHT22;15818;45.534;5.292;2022-11-24T01:07:09;6.70;99.90
28632;DHT22;15818;45.534;5.292;2022-11-24T01:09:34;6.70;99.90
28632;DHT22;15818;45.534;5.292;2022-11-24T01:12:00;6.70;99.90
28632;DHT22;15818;45.534;5.292;2022-11-24T01:14:25;6.70;99.90
28632;DHT22;15818;45.534;5.292;2022-11-24T01:16:51;6.60;99.90
28632;DHT22;15818;45.534;5.292;2022-11-24T01:19:17;6.60;99.90
28632;DHT22;15818;45.534;5.292;2022-11-24T01:21:43;6.60;99.90
28632;DHT22;15818;45.534;5.292;2022-11-24T01:24:08;6.60;99.90
28632;DHT22;15818;45.534;5.292;2022-11-24T01:26:34;6.50;99.90
28632;DHT22;15818;45.534;5.292;2022-11-24T01:29:00;6.30;99.90
28632;DHT22;15818;45.534;5.292;2022-11-24T01:31:25;6.40;99.90
28632;DHT22;15818;45.534;5.292;2022-11-24T01:33:51;6.40;99.90
28632;DHT22;15818;45.534;5.292;2022-11-24T01:36:17;6.50;99.90
28632;DHT22;15818;45.534;5.292;2022-11-24T01:38:42;6.50;99.90
28632;DHT22;15818;45.534;5.292;2022-11-24T01:41:12;6.50;99.90
28632;DHT22;15818;45.534;5.292;2022-11-24T01:43:38;6.50;99.90
28632;DHT22;15818;45.534;5.292;2022-11-24T01:46:11;6.50;99.90
28632;DHT22;15818;45.534;5.292;2022-11-24T01:48:40;6.50;99.90
28632;DHT22;15818;45.534;5.292;2022-11-24T01:54:07;6.50;99.90
28632;DHT22;15818;45.534;5.292;2022-11-24T01:56:34;6.50;99.90
28632;DHT22;15818;45.534;5.292;2022-11-24T01:59:01;6.40;99.90
28632;DHT22;15818;45.534;5.292;2022-11-24T02:01:27;6.40;99.90
28632;DHT22;15818;45.534;5.292;2022-11-24T02:03:55;6.40;99.90
28632;DHT22;15818;45.534;5.292;2022-11-24T02:06:22;6.40;99.90
28632;DHT22;15818;45.534;5.292;2022-11-24T02:11:22;6.50;99.90
28632;DHT22;15818;45.534;5.292;2022-11-24T02:13:47;6.50;99.90
28632;DHT22;15818;45.534;5.292;2022-11-24T02:16:14;6.50;99.90
28632;DHT22;15818;45.534;5.292;2022-11-24T02:18:40;6.60;99.90
28632;DHT22;15818;45.534;5.292;2022-11-24T02:21:06;6.60;99.90
28632;DHT22;15818;45.534;5.292;2022-11-24T02:23:42;6.60;99.90
28632;DHT22;15818;45.534;5.292;2022-11-24T02:28:46;6.60;99.90
28632;DHT22;15818;45.534;5.292;2022-11-24T02:31:12;6.50;99.90
28632;DHT22;15818;45.534;5.292;2022-11-24T02:33:38;6.50;99.90
28632;DHT22;15818;45.534;5.292;2022-11-24T02:36:04;6.40;99.90
28632;DHT22;15818;45.534;5.292;2022-11-24T02:38:30;6.40;99.90
28632;DHT22;15818;45.534;5.292;2022-11-24T02:40:56;6.30;99.90
28632;DHT22;15818;45.534;5.292;2022-11-24T02:43:23;6.30;99.90
28632;DHT22;15818;45.534;5.292;2022-11-24T02:45:48;6.30;99.90
28632;DHT22;15818;45.534;5.292;2022-11-24T02:48:14;6.30;99.90
28632;DHT22;15818;45.534;5.292;2022-11-24T02:50:40;6.40;99.90
28632;DHT22;15818;45.534;5.292;2022-11-24T02:53:05;6.40;99.90
28632;DHT22;15818;45.534;5.292;2022-11-24T02:55:31;6.60;99.90
28632;DHT22;15818;45.534;5.292;2022-11-24T02:57:57;6.60;99.90
28632;DHT22;15818;45.534;5.292;2022-11-24T03:00:22;6.70;99.90
28632;DHT22;15818;45.534;5.292;2022-11-24T03:02:48;6.70;99.90
28632;DHT22;15818;45.534;5.292;2022-11-24T03:05:14;6.60;99.90
28632;DHT22;15818;45.534;5.292;2022-11-24T03:07:39;6.50;99.90
28632;DHT22;15818;45.534;5.292;2022-11-24T03:10:05;6.50;99.90
28632;DHT22;15818;45.534;5.292;2022-11-24T03:12:30;6.50;99.90
28632;DHT22;15818;45.534;5.292;2022-11-24T03:14:56;6.50;99.90
28632;DHT22;15818;45.534;5.292;2022-11-24T03:17:22;6.40;99.90
28632;DHT22;15818;45.534;5.292;2022-11-24T03:19:47;6.40;99.90
28632;DHT22;15818;45.534;5.292;2022-11-24T03:22:13;6.40;99.90
28632;DHT22;15818;45.534;5.292;2022-11-24T03:24:38;6.40;99.90
28632;DHT22;15818;45.534;5.292;2022-11-24T03:27:04;6.40;99.90
28632;DHT22;15818;45.534;5.292;2022-11-24T03:29:29;6.50;99.90
28632;DHT22;15818;45.534;5.292;2022-11-24T03:31:55;6.40;99.90
28632;DHT22;15818;45.534;5.292;2022-11-24T03:34:20;6.40;99.90
28632;DHT22;15818;45.534;5.292;2022-11-24T03:36:46;6.40;99.90
28632;DHT22;15818;45.534;5.292;2022-11-24T03:39:12;6.50;99.90
28632;DHT22;15818;45.534;5.292;2022-11-24T03:41:37;6.50;99.90
28632;DHT22;15818;45.534;5.292;2022-11-24T03:44:03;6.50;99.90
28632;DHT22;15818;45.534;5.292;2022-11-24T03:46:29;6.60;99.90
28632;DHT22;15818;45.534;5.292;2022-11-24T03:48:54;6.60;99.90
28632;DHT22;15818;45.534;5.292;2022-11-24T03:51:20;6.60;99.90
28632;DHT22;15818;45.534;5.292;2022-11-24T03:53:45;6.60;99.90
28632;DHT22;15818;45.534;5.292;2022-11-24T03:56:11;6.60;99.90
28632;DHT22;15818;45.534;5.292;2022-11-24T03:58:37;6.50;99.90
28632;DHT22;15818;45.534;5.292;2022-11-24T04:01:02;6.50;99.90
28632;DHT22;15818;45.534;5.292;2022-11-24T04:03:28;6.50;99.90
28632;DHT22;15818;45.534;5.292;2022-11-24T04:05:54;6.50;99.90
28632;DHT22;15818;45.534;5.292;2022-11-24T04:08:19;6.50;99.90
28632;DHT22;15818;45.534;5.292;2022-11-24T04:10:48;6.40;99.90
28632;DHT22;15818;45.534;5.292;2022-11-24T04:13:15;6.40;99.90
28632;DHT22;15818;45.534;5.292;2022-11-24T04:15:41;6.40;99.90
28632;DHT22;15818;45.534;5.292;2022-11-24T04:18:07;6.40;99.90
28632;DHT22;15818;45.534;5.292;2022-11-24T04:20:33;6.50;99.90
28632;DHT22;15818;45.534;5.292;2022-11-24T04:22:58;6.40;99.90
28632;DHT22;15818;45.534;5.292;2022-11-24T04:25:24;6.40;99.90
28632;DHT22;15818;45.534;5.292;2022-11-24T04:27:50;6.30;99.90
28632;DHT22;15818;45.534;5.292;2022-11-24T04:30:17;6.30;99.90
28632;DHT22;15818;45.534;5.292;2022-11-24T04:32:43;6.30;99.90
28632;DHT22;15818;45.534;5.292;2022-11-24T04:35:08;6.40;99.90
28632;DHT22;15818;45.534;5.292;2022-11-24T04:37:34;6.40;99.90
28632;DHT22;15818;45.534;5.292;2022-11-24T04:39:59;6.40;99.90
28632;DHT22;15818;45.534;5.292;2022-11-24T04:42:25;6.40;99.90
28632;DHT22;15818;45.534;5.292;2022-11-24T04:44:51;6.40;99.90
28632;DHT22;15818;45.534;5.292;2022-11-24T04:47:17;6.40;99.90
28632;DHT22;15818;45.534;5.292;2022-11-24T04:49:45;6.40;99.90
28632;DHT22;15818;45.534;5.292;2022-11-24T04:52:11;6.40;99.90
28632;DHT22;15818;45.534;5.292;2022-11-24T04:54:36;6.40;99.90
28632;DHT22;15818;45.534;5.292;2022-11-24T04:57:02;6.50;99.90
28632;DHT22;15818;45.534;5.292;2022-11-24T04:59:27;6.50;99.90
28632;DHT22;15818;45.534;5.292;2022-11-24T05:01:53;6.40;99.90
28632;DHT22;15818;45.534;5.292;2022-11-24T05:04:18;6.40;99.90
28632;DHT22;15818;45.534;5.292;2022-11-24T05:06:45;6.50;99.90
28632;DHT22;15818;45.534;5.292;2022-11-24T05:09:14;6.50;99.90
28632;DHT22;15818;45.534;5.292;2022-11-24T05:11:40;6.50;99.90
28632;DHT22;15818;45.534;5.292;2022-11-24T05:14:06;6.40;99.90
28632;DHT22;15818;45.534;5.292;2022-11-24T05:16:31;6.40;99.90
28632;DHT22;15818;45.534;5.292;2022-11-24T05:18:57;6.30;99.90
28632;DHT22;15818;45.534;5.292;2022-11-24T05:21:22;6.30;99.90
28632;DHT22;15818;45.534;5.292;2022-11-24T05:23:48;6.30;99.90
28632;DHT22;15818;45.534;5.292;2022-11-24T05:26:13;6.30;99.90
28632;DHT22;15818;45.534;5.292;2022-11-24T05:28:39;6.20;99.90
28632;DHT22;15818;45.534;5.292;2022-11-24T05:31:05;6.30;99.90
28632;DHT22;15818;45.534;5.292;2022-11-24T05:33:30;6.40;99.90
28632;DHT22;15818;45.534;5.292;2022-11-24T05:36:01;6.50;99.90
28632;DHT22;15818;45.534;5.292;2022-11-24T05:38:27;6.40;99.90
28632;DHT22;15818;45.534;5.292;2022-11-24T05:40:53;6.50;99.90
28632;DHT22;15818;45.534;5.292;2022-11-24T05:43:19;6.50;99.90
28632;DHT22;15818;45.534;5.292;2022-11-24T05:45:44;6.50;99.90
28632;DHT22;15818;45.534;5.292;2022-11-24T05:48:11;6.50;99.90
28632;DHT22;15818;45.534;5.292;2022-11-24T05:50:37;6.50;99.90
28632;DHT22;15818;45.534;5.292;2022-11-24T05:53:09;6.40;99.90
28632;DHT22;15818;45.534;5.292;2022-11-24T05:55:35;6.40;99.90
28632;DHT22;15818;45.534;5.292;2022-11-24T05:58:03;6.40;99.90
28632;DHT22;15818;45.534;5.292;2022-11-24T06:00:29;6.30;99.90
28632;DHT22;15818;45.534;5.292;2022-11-24T06:02:55;6.30;99.90
28632;DHT22;15818;45.534;5.292;2022-11-24T06:05:21;6.20;99.90
28632;DHT22;15818;45.534;5.292;2022-11-24T06:07:47;6.20;99.90
28632;DHT22;15818;45.534;5.292;2022-11-24T06:10:14;6.20;99.90
28632;DHT22;15818;45.534;5.292;2022-11-24T06:12:39;6.40;99.90
28632;DHT22;15818;45.534;5.292;2022-11-24T06:15:05;6.50;99.90
28632;DHT22;15818;45.534;5.292;2022-11-24T06:17:31;6.60;99.90
28632;DHT22;15818;45.534;5.292;2022-11-24T06:19:56;6.70;99.90
28632;DHT22;15818;45.534;5.292;2022-11-24T06:22:22;6.70;99.90
28632;DHT22;15818;45.534;5.292;2022-11-24T06:24:47;6.50;99.90
28632;DHT22;15818;45.534;5.292;2022-11-24T06:27:14;6.50;99.90
28632;DHT22;15818;45.534;5.292;2022-11-24T06:29:40;6.50;99.90
28632;DHT22;15818;45.534;5.292;2022-11-24T06:32:06;6.60;99.90
28632;DHT22;15818;45.534;5.292;2022-11-24T06:34:31;6.60;99.90
28632;DHT22;15818;45.534;5.292;2022-11-24T06:36:57;6.60;99.90
28632;DHT22;15818;45.534;5.292;2022-11-24T06:39:22;6.60;99.90
28632;DHT22;15818;45.534;5.292;2022-11-24T06:41:48;6.60;99.90
28632;DHT22;15818;45.534;5.292;2022-11-24T06:44:14;6.50;99.90
28632;DHT22;15818;45.534;5.292;2022-11-24T06:46:40;6.50;99.90
28632;DHT22;15818;45.534;5.292;2022-11-24T06:49:05;6.60;99.90
28632;DHT22;15818;45.534;5.292;2022-11-24T06:51:31;6.70;99.90
28632;DHT22;15818;45.534;5.292;2022-11-24T06:53:56;6.70;99.90
28632;DHT22;15818;45.534;5.292;2022-11-24T06:56:22;6.70;99.90
28632;DHT22;15818;45.534;5.292;2022-11-24T06:58:48;6.70;99.90
28632;DHT22;15818;45.534;5.292;2022-11-24T07:01:18;6.70;99.90
28632;DHT22;15818;45.534;5.292;2022-11-24T07:03:44;6.70;99.90
28632;DHT22;15818;45.534;5.292;2022-11-24T07:06:10;6.70;99.90
28632;DHT22;15818;45.534;5.292;2022-11-24T07:08:35;6.60;99.90
28632;DHT22;15818;45.534;5.292;2022-11-24T07:11:04;6.70;99.90
28632;DHT22;15818;45.534;5.292;2022-11-24T07:13:30;6.70;99.90
28632;DHT22;15818;45.534;5.292;2022-11-24T07:15:56;6.80;99.90
28632;DHT22;15818;45.534;5.292;2022-11-24T07:18:21;6.90;99.90
28632;DHT22;15818;45.534;5.292;2022-11-24T07:20:47;7.00;99.90
28632;DHT22;15818;45.534;5.292;2022-11-24T07:23:12;6.90;99.90
28632;DHT22;15818;45.534;5.292;2022-11-24T07:25:38;6.90;99.90
28632;DHT22;15818;45.534;5.292;2022-11-24T07:28:03;6.90;99.90
28632;DHT22;15818;45.534;5.292;2022-11-24T07:30:30;6.80;99.90
28632;DHT22;15818;45.534;5.292;2022-11-24T07:32:59;6.70;99.90
28632;DHT22;15818;45.534;5.292;2022-11-24T07:35:25;6.70;99.90
28632;DHT22;15818;45.534;5.292;2022-11-24T07:37:54;6.70;99.90
28632;DHT22;15818;45.534;5.292;2022-11-24T07:40:20;6.70;99.90
28632;DHT22;15818;45.534;5.292;2022-11-24T07:42:46;6.70;99.90
28632;DHT22;15818;45.534;5.292;2022-11-24T07:45:11;6.80;99.90
28632;DHT22;15818;45.534;5.292;2022-11-24T07:47:37;7.10;99.90
28632;DHT22;15818;45.534;5.292;2022-11-24T07:50:03;7.00;99.90
28632;DHT22;15818;45.534;5.292;2022-11-24T07:52:29;7.10;99.90
28632;DHT22;15818;45.534;5.292;2022-11-24T07:54:54;7.10;99.90
28632;DHT22;15818;45.534;5.292;2022-11-24T07:57:20;7.30;99.90
28632;DHT22;15818;45.534;5.292;2022-11-24T07:59:45;7.70;99.90
28632;DHT22;15818;45.534;5.292;2022-11-24T08:02:11;8.40;99.90
28632;DHT22;15818;45.534;5.292;2022-11-24T08:04:37;9.20;99.90
28632;DHT22;15818;45.534;5.292;2022-11-24T08:07:03;10.10;99.90
28632;DHT22;15818;45.534;5.292;2022-11-24T08:09:28;10.50;99.90
28632;DHT22;15818;45.534;5.292;2022-11-24T08:11:54;10.30;99.90
28632;DHT22;15818;45.534;5.292;2022-11-24T08:14:19;10.50;99.90
28632;DHT22;15818;45.534;5.292;2022-11-24T08:16:45;10.20;99.90
28632;DHT22;15818;45.534;5.292;2022-11-24T08:19:10;11.20;99.90
28632;DHT22;15818;45.534;5.292;2022-11-24T08:21:36;11.50;99.90
28632;DHT22;15818;45.534;5.292;2022-11-24T08:24:02;11.90;99.90
28632;DHT22;15818;45.534;5.292;2022-11-24T08:26:28;11.90;99.90
28632;DHT22;15818;45.534;5.292;2022-11-24T08:28:55;11.60;99.90
28632;DHT22;15818;45.534;5.292;2022-11-24T08:31:21;11.60;99.90
28632;DHT22;15818;45.534;5.292;2022-11-24T08:33:47;11.30;99.90
28632;DHT22;15818;45.534;5.292;2022-11-24T08:36:13;11.10;99.90
28632;DHT22;15818;45.534;5.292;2022-11-24T08:38:39;11.40;99.90
28632;DHT22;15818;45.534;5.292;2022-11-24T08:41:09;11.80;99.90
28632;DHT22;15818;45.534;5.292;2022-11-24T08:43:35;12.40;99.90
28632;DHT22;15818;45.534;5.292;2022-11-24T08:46:01;11.90;99.90
28632;DHT22;15818;45.534;5.292;2022-11-24T08:48:27;11.70;99.90
28632;DHT22;15818;45.534;5.292;2022-11-24T08:50:52;11.40;99.90
28632;DHT22;15818;45.534;5.292;2022-11-24T08:53:18;11.30;99.90
28632;DHT22;15818;45.534;5.292;2022-11-24T08:55:43;11.60;99.90
28632;DHT22;15818;45.534;5.292;2022-11-24T08:58:09;11.80;99.90
28632;DHT22;15818;45.534;5.292;2022-11-24T09:00:34;13.30;99.90
28632;DHT22;15818;45.534;5.292;2022-11-24T09:03:00;13.80;99.90
28632;DHT22;15818;45.534;5.292;2022-11-24T09:05:26;13.50;99.90
28632;DHT22;15818;45.534;5.292;2022-11-24T09:07:51;12.80;99.90
28632;DHT22;15818;45.534;5.292;2022-11-24T09:10:17;12.40;99.90
28632;DHT22;15818;45.534;5.292;2022-11-24T09:12:46;12.40;99.90
28632;DHT22;15818;45.534;5.292;2022-11-24T09:15:12;12.80;99.90
28632;DHT22;15818;45.534;5.292;2022-11-24T09:17:39;13.30;99.90
28632;DHT22;15818;45.534;5.292;2022-11-24T09:20:04;13.70;99.90
28632;DHT22;15818;45.534;5.292;2022-11-24T09:22:30;14.10;99.90
28632;DHT22;15818;45.534;5.292;2022-11-24T09:24:56;14.50;99.90
28632;DHT22;15818;45.534;5.292;2022-11-24T09:27:21;14.90;99.90
28632;DHT22;15818;45.534;5.292;2022-11-24T09:29:47;15.10;99.90
28632;DHT22;15818;45.534;5.292;2022-11-24T09:32:13;15.50;99.90
28632;DHT22;15818;45.534;5.292;2022-11-24T09:34:38;16.30;99.90
28632;DHT22;15818;45.534;5.292;2022-11-24T09:37:04;16.00;99.90
28632;DHT22;15818;45.534;5.292;2022-11-24T09:39:30;15.40;99.90
28632;DHT22;15818;45.534;5.292;2022-11-24T09:42:04;15.60;99.90
28632;DHT22;15818;45.534;5.292;2022-11-24T09:44:37;16.10;99.90
28632;DHT22;15818;45.534;5.292;2022-11-24T09:52:36;17.60;99.90
28632;DHT22;15818;45.534;5.292;2022-11-24T09:55:02;18.10;99.90
28632;DHT22;15818;45.534;5.292;2022-11-24T09:57:29;18.10;99.90
28632;DHT22;15818;45.534;5.292;2022-11-24T10:00:00;17.40;99.90
28632;DHT22;15818;45.534;5.292;2022-11-24T10:02:27;17.10;99.90
28632;DHT22;15818;45.534;5.292;2022-11-24T10:04:53;16.70;99.90
28632;DHT22;15818;45.534;5.292;2022-11-24T10:07:29;17.20;99.90
28632;DHT22;15818;45.534;5.292;2022-11-24T10:12:33;17.40;99.90
28632;DHT22;15818;45.534;5.292;2022-11-24T10:15:09;17.10;99.90
28632;DHT22;15818;45.534;5.292;2022-11-24T10:20:11;17.50;99.90
28632;DHT22;15818;45.534;5.292;2022-11-24T10:22:54;17.00;99.90
28632;DHT22;15818;45.534;5.292;2022-11-24T10:25:29;17.40;99.90
28632;DHT22;15818;45.534;5.292;2022-11-24T10:27:57;17.80;99.90
28632;DHT22;15818;45.534;5.292;2022-11-24T10:30:24;17.40;99.90
28632;DHT22;15818;45.534;5.292;2022-11-24T10:33:23;17.80;99.90
28632;DHT22;15818;45.534;5.292;2022-11-24T10:40:47;18.60;99.90
28632;DHT22;15818;45.534;5.292;2022-11-24T10:43:15;19.00;99.90
28632;DHT22;15818;45.534;5.292;2022-11-24T10:45:41;19.50;99.90
28632;DHT22;15818;45.534;5.292;2022-11-24T10:48:17;19.20;99.90
28632;DHT22;15818;45.534;5.292;2022-11-24T10:50:44;18.80;99.90
28632;DHT22;15818;45.534;5.292;2022-11-24T10:58:19;20.30;99.90
28632;DHT22;15818;45.534;5.292;2022-11-24T11:00:45;20.60;99.90
28632;DHT22;15818;45.534;5.292;2022-11-24T11:03:18;20.40;99.90
28632;DHT22;15818;45.534;5.292;2022-11-24T11:08:30;20.30;99.90
28632;DHT22;15818;45.534;5.292;2022-11-24T11:13:50;20.40;99.90
28632;DHT22;15818;45.534;5.292;2022-11-24T11:16:22;20.90;99.90
28632;DHT22;15818;45.534;5.292;2022-11-24T11:18:47;21.20;99.90
28632;DHT22;15818;45.534;5.292;2022-11-24T11:21:23;21.20;99.90
28632;DHT22;15818;45.534;5.292;2022-11-24T11:23:51;20.70;99.90
28632;DHT22;15818;45.534;5.292;2022-11-24T11:29:12;20.80;99.90
28632;DHT22;15818;45.534;5.292;2022-11-24T11:31:29;21.90;99.90
28632;DHT22;15818;45.534;5.292;2022-11-24T11:33:59;22.70;99.90
28632;DHT22;15818;45.534;5.292;2022-11-24T11:36:25;22.00;99.90
28632;DHT22;15818;45.534;5.292;2022-11-24T11:38:51;21.30;99.90
28632;DHT22;15818;45.534;5.292;2022-11-24T11:41:24;21.20;99.90
28632;DHT22;15818;45.534;5.292;2022-11-24T11:44:05;21.00;99.90
28632;DHT22;15818;45.534;5.292;2022-11-24T11:46:33;21.40;99.90
28632;DHT22;15818;45.534;5.292;2022-11-24T11:48:58;21.30;99.90
28632;DHT22;15818;45.534;5.292;2022-11-24T11:56:54;21.70;99.90
28632;DHT22;15818;45.534;5.292;2022-11-24T12:04:49;23.10;99.90
28632;DHT22;15818;45.534;5.292;2022-11-24T12:22:45;25.30;99.90
28632;DHT22;15818;45.534;5.292;2022-11-24T12:27:40;25.20;99.90
28632;DHT22;15818;45.534;5.292;2022-11-24T12:30:17;25.50;99.90
28632;DHT22;15818;45.534;5.292;2022-11-24T12:35:32;26.80;99.90
28632;DHT22;15818;45.534;5.292;2022-11-24T12:38:15;26.60;99.80
28632;DHT22;15818;45.534;5.292;2022-11-24T12:43:29;27.40;99.80
28632;DHT22;15818;45.534;5.292;2022-11-24T12:48:37;27.30;98.90
28632;DHT22;15818;45.534;5.292;2022-11-24T12:51:08;27.10;98.90
28632;DHT22;15818;45.534;5.292;2022-11-24T12:53:35;27.00;98.00
28632;DHT22;15818;45.534;5.292;2022-11-24T12:56:05;26.80;97.80
28632;DHT22;15818;45.534;5.292;2022-11-24T12:58:55;26.70;99.90
28632;DHT22;15818;45.534;5.292;2022-11-24T13:03:55;27.10;98.30
28632;DHT22;15818;45.534;5.292;2022-11-24T13:06:29;28.10;98.20
28632;DHT22;15818;45.534;5.292;2022-11-24T13:09:09;28.90;96.40
28632;DHT22;15818;45.534;5.292;2022-11-24T13:14:03;29.10;95.70
28632;DHT22;15818;45.534;5.292;2022-11-24T13:16:29;28.70;95.80
28632;DHT22;15818;45.534;5.292;2022-11-24T13:18:58;28.90;96.70
28632;DHT22;15818;45.534;5.292;2022-11-24T13:29:20;29.00;94.50
28632;DHT22;15818;45.534;5.292;2022-11-24T13:31:54;29.00;95.20
28632;DHT22;15818;45.534;5.292;2022-11-24T13:37:17;27.90;96.30
28632;DHT22;15818;45.534;5.292;2022-11-24T13:39:49;27.20;96.30
28632;DHT22;15818;45.534;5.292;2022-11-24T13:42:15;26.70;97.30
28632;DHT22;15818;45.534;5.292;2022-11-24T13:44:42;26.80;96.10
28632;DHT22;15818;45.534;5.292;2022-11-24T13:49:52;26.10;97.30
28632;DHT22;15818;45.534;5.292;2022-11-24T13:55:02;25.40;96.00
28632;DHT22;15818;45.534;5.292;2022-11-24T13:57:32;25.00;98.00
28632;DHT22;15818;45.534;5.292;2022-11-24T13:59:59;26.20;96.30
28632;DHT22;15818;45.534;5.292;2022-11-24T14:02:25;27.10;94.50
28632;DHT22;15818;45.534;5.292;2022-11-24T14:04:50;27.60;95.00
28632;DHT22;15818;45.534;5.292;2022-11-24T14:07:16;27.60;93.70
28632;DHT22;15818;45.534;5.292;2022-11-24T14:09:42;26.90;94.10
28632;DHT22;15818;45.534;5.292;2022-11-24T14:12:42;26.30;93.70
28632;DHT22;15818;45.534;5.292;2022-11-24T14:17:44;22.90;96.70
28632;DHT22;15818;45.534;5.292;2022-11-24T14:20:23;22.20;97.80
28632;DHT22;15818;45.534;5.292;2022-11-24T14:22:49;22.30;98.10
28632;DHT22;15818;45.534;5.292;2022-11-24T14:26:15;22.70;98.30
28632;DHT22;15818;45.534;5.292;2022-11-24T14:28:14;22.90;98.40
28632;DHT22;15818;45.534;5.292;2022-11-24T14:30:44;22.70;99.60
28632;DHT22;15818;45.534;5.292;2022-11-24T14:33:10;23.00;98.30
28632;DHT22;15818;45.534;5.292;2022-11-24T14:35:40;22.80;98.00
28632;DHT22;15818;45.534;5.292;2022-11-24T14:38:07;21.80;99.90
28632;DHT22;15818;45.534;5.292;2022-11-24T14:40:53;21.50;99.70
28632;DHT22;15818;45.534;5.292;2022-11-24T14:48:25;20.40;99.90
28632;DHT22;15818;45.534;5.292;2022-11-24T14:50:51;19.80;99.90
28632;DHT22;15818;45.534;5.292;2022-11-24T14:53:17;19.50;99.90
28632;DHT22;15818;45.534;5.292;2022-11-24T14:55:44;19.10;99.90
28632;DHT22;15818;45.534;5.292;2022-11-24T14:58:29;18.50;99.90
28632;DHT22;15818;45.534;5.292;2022-11-24T15:06:37;17.10;99.90
28632;DHT22;15818;45.534;5.292;2022-11-24T15:09:03;16.90;99.90
28632;DHT22;15818;45.534;5.292;2022-11-24T15:11:32;16.70;99.90
28632;DHT22;15818;45.534;5.292;2022-11-24T15:13:58;16.60;99.90
28632;DHT22;15818;45.534;5.292;2022-11-24T15:16:25;16.00;99.90
28632;DHT22;15818;45.534;5.292;2022-11-24T15:18:58;15.70;99.90
28632;DHT22;15818;45.534;5.292;2022-11-24T15:24:12;15.50;99.90
28632;DHT22;15818;45.534;5.292;2022-11-24T15:26:38;15.10;99.90
28632;DHT22;15818;45.534;5.292;2022-11-24T15:29:04;15.00;99.90
28632;DHT22;15818;45.534;5.292;2022-11-24T15:31:29;14.90;99.90
28632;DHT22;15818;45.534;5.292;2022-11-24T15:33:56;14.80;99.90
28632;DHT22;15818;45.534;5.292;2022-11-24T15:36:21;14.60;99.90
28632;DHT22;15818;45.534;5.292;2022-11-24T15:38:47;14.50;99.90
28632;DHT22;15818;45.534;5.292;2022-11-24T15:41:26;14.20;99.90
28632;DHT22;15818;45.534;5.292;2022-11-24T15:43:52;13.80;99.90
28632;DHT22;15818;45.534;5.292;2022-11-24T15:46:30;13.60;99.90
28632;DHT22;15818;45.534;5.292;2022-11-24T15:49:02;13.50;99.90
28632;DHT22;15818;45.534;5.292;2022-11-24T15:51:28;13.20;99.90
28632;DHT22;15818;45.534;5.292;2022-11-24T15:53:54;13.10;99.90
28632;DHT22;15818;45.534;5.292;2022-11-24T15:56:24;13.00;99.90
28632;DHT22;15818;45.534;5.292;2022-11-24T15:58:52;12.90;99.90
28632;DHT22;15818;45.534;5.292;2022-11-24T16:01:18;12.70;99.90
28632;DHT22;15818;45.534;5.292;2022-11-24T16:03:44;12.70;99.90
28632;DHT22;15818;45.534;5.292;2022-11-24T16:06:11;12.60;99.90
28632;DHT22;15818;45.534;5.292;2022-11-24T16:08:38;12.50;99.90
28632;DHT22;15818;45.534;5.292;2022-11-24T16:11:04;12.70;99.90
28632;DHT22;15818;45.534;5.292;2022-11-24T16:13:29;12.60;99.90
28632;DHT22;15818;45.534;5.292;2022-11-24T16:15:55;12.40;99.90
28632;DHT22;15818;45.534;5.292;2022-11-24T16:18:20;12.40;99.90
28632;DHT22;15818;45.534;5.292;2022-11-24T16:20:46;12.40;99.90
28632;DHT22;15818;45.534;5.292;2022-11-24T16:23:11;12.50;99.90
28632;DHT22;15818;45.534;5.292;2022-11-24T16:25:37;12.40;99.90
28632;DHT22;15818;45.534;5.292;2022-11-24T16:28:03;12.40;99.90
28632;DHT22;15818;45.534;5.292;2022-11-24T16:30:28;12.20;99.90
28632;DHT22;15818;45.534;5.292;2022-11-24T16:32:54;12.10;99.90
28632;DHT22;15818;45.534;5.292;2022-11-24T16:35:19;12.30;99.90
28632;DHT22;15818;45.534;5.292;2022-11-24T16:37:45;12.00;99.90
28632;DHT22;15818;45.534;5.292;2022-11-24T16:40:10;11.60;99.90
28632;DHT22;15818;45.534;5.292;2022-11-24T16:42:36;11.40;99.90
28632;DHT22;15818;45.534;5.292;2022-11-24T16:45:02;11.20;99.90
28632;DHT22;15818;45.534;5.292;2022-11-24T16:47:27;11.20;99.90
28632;DHT22;15818;45.534;5.292;2022-11-24T16:49:53;11.10;99.90
28632;DHT22;15818;45.534;5.292;2022-11-24T16:52:18;11.20;99.90
28632;DHT22;15818;45.534;5.292;2022-11-24T16:54:44;11.20;99.90
28632;DHT22;15818;45.534;5.292;2022-11-24T16:57:10;11.30;99.90
28632;DHT22;15818;45.534;5.292;2022-11-24T16:59:36;11.40;99.90
28632;DHT22;15818;45.534;5.292;2022-11-24T17:02:02;11.20;99.90
28632;DHT22;15818;45.534;5.292;2022-11-24T17:04:28;11.10;99.90
28632;DHT22;15818;45.534;5.292;2022-11-24T17:06:54;10.90;99.90
28632;DHT22;15818;45.534;5.292;2022-11-24T17:09:19;10.50;99.90
28632;DHT22;15818;45.534;5.292;2022-11-24T17:11:45;10.10;99.90
28632;DHT22;15818;45.534;5.292;2022-11-24T17:14:10;10.10;99.90
28632;DHT22;15818;45.534;5.292;2022-11-24T17:16:36;10.20;99.90
28632;DHT22;15818;45.534;5.292;2022-11-24T17:19:03;10.10;99.90
28632;DHT22;15818;45.534;5.292;2022-11-24T17:21:30;10.10;99.90
28632;DHT22;15818;45.534;5.292;2022-11-24T17:24:00;10.30;99.90
28632;DHT22;15818;45.534;5.292;2022-11-24T17:26:27;10.50;99.90
28632;DHT22;15818;45.534;5.292;2022-11-24T17:28:53;10.60;99.90